createdAt,value
2023-03-20T00:01:31.238Z,45.00
2023-03-20T00:04:24.039Z,45.00
2023-03-20T00:07:17.569Z,45.10
2023-03-20T00:10:12.038Z,45.10
2023-03-20T00:13:06.353Z,45.20
2023-03-20T00:15:59.806Z,45.20
2023-03-20T00:18:56.244Z,45.30
2023-03-20T00:21:49.216Z,45.30
2023-03-20T00:24:41.870Z,45.30
2023-03-20T00:27:34.927Z,45.40
2023-03-20T00:30:30.721Z,45.40
2023-03-20T00:33:24.451Z,45.40
2023-03-20T00:36:19.324Z,45.50
2023-03-20T00:39:13.067Z,45.50
2023-03-20T00:42:08.639Z,45.50
2023-03-20T00:45:02.421Z,45.50
2023-03-20T00:47:57.401Z,45.60
2023-03-20T00:50:51.234Z,45.80
2023-03-20T00:53:45.078Z,45.80
2023-03-20T00:56:43.852Z,45.80
2023-03-20T00:59:40.991Z,45.80
2023-03-20T01:02:34.864Z,45.80
2023-03-20T01:05:29.063Z,45.70
2023-03-20T01:08:23.844Z,45.70
2023-03-20T01:11:22.845Z,45.70
2023-03-20T01:14:17.822Z,45.60
2023-03-20T01:17:18.130Z,45.70
2023-03-20T01:20:16.539Z,45.70
2023-03-20T01:23:10.595Z,45.70
2023-03-20T01:26:04.151Z,45.70
2023-03-20T01:28:58.479Z,45.60
2023-03-20T01:31:53.533Z,46.80
2023-03-20T01:34:47.575Z,45.80
2023-03-20T01:37:41.673Z,45.70
2023-03-20T01:40:44.552Z,45.60
2023-03-20T01:43:38.080Z,45.60
2023-03-20T01:46:33.105Z,45.60
2023-03-20T01:50:18.804Z,45.50
2023-03-20T01:53:17.237Z,45.50
2023-03-20T01:56:10.393Z,45.50
2023-03-20T01:59:10.662Z,45.40
2023-03-20T02:02:07.037Z,45.50
2023-03-20T02:05:05.315Z,45.50
2023-03-20T02:08:11.452Z,45.50
2023-03-20T02:11:06.548Z,45.40
2023-03-20T02:14:02.369Z,45.30
2023-03-20T02:16:55.387Z,45.30
2023-03-20T02:20:04.438Z,45.30
2023-03-20T02:23:41.098Z,45.30
2023-03-20T02:26:51.481Z,45.20
2023-03-20T02:30:04.854Z,45.30
2023-03-20T02:33:35.111Z,45.20
2023-03-20T02:36:51.007Z,45.20
2023-03-20T02:39:59.047Z,45.10
2023-03-20T02:42:59.385Z,45.10
2023-03-20T02:45:58.494Z,45.00
2023-03-20T02:48:57.750Z,45.00
2023-03-20T02:51:57.848Z,45.00
2023-03-20T02:55:01.960Z,44.90
2023-03-20T02:58:02.558Z,44.90
2023-03-20T03:01:01.985Z,44.90
2023-03-20T03:03:58.121Z,44.80
2023-03-20T03:06:55.761Z,44.80
2023-03-20T03:09:55.248Z,44.80
2023-03-20T03:12:50.632Z,44.70
2023-03-20T03:15:47.879Z,44.70
2023-03-20T03:18:43.223Z,44.70
2023-03-20T03:21:38.563Z,44.70
2023-03-20T03:24:41.315Z,44.70
2023-03-20T03:27:39.045Z,44.70
2023-03-20T03:30:35.388Z,44.70
2023-03-20T03:33:30.975Z,44.70
2023-03-20T03:36:35.182Z,44.70
2023-03-20T03:39:37.853Z,44.70
2023-03-20T03:42:36.326Z,44.70
2023-03-20T03:45:36.531Z,45.30
2023-03-20T03:48:34.357Z,44.60
2023-03-20T03:51:32.862Z,44.70
2023-03-20T03:54:29.339Z,44.70
2023-03-20T03:57:26.542Z,44.70
2023-03-20T04:00:23.674Z,44.80
2023-03-20T04:03:21.154Z,44.80
2023-03-20T04:06:14.244Z,44.80
2023-03-20T04:09:07.131Z,44.90
2023-03-20T04:12:00.220Z,44.90
2023-03-20T04:14:52.953Z,45.00
2023-03-20T04:17:46.327Z,45.70
2023-03-20T04:20:40.420Z,45.00
2023-03-20T04:23:33.090Z,45.00
2023-03-20T04:26:26.339Z,45.00
2023-03-20T04:29:19.041Z,45.00
2023-03-20T04:32:12.886Z,45.10
2023-03-20T04:35:07.370Z,45.10
2023-03-20T04:38:01.227Z,45.20
2023-03-20T04:40:54.366Z,45.20
2023-03-20T04:43:47.353Z,45.20
2023-03-20T04:46:40.673Z,45.20
2023-03-20T04:49:34.408Z,45.30
2023-03-20T04:52:27.536Z,45.30
2023-03-20T04:55:22.812Z,45.30
2023-03-20T04:58:16.130Z,45.30
2023-03-20T05:01:09.381Z,45.60
2023-03-20T05:04:02.248Z,45.40
2023-03-20T05:06:55.211Z,45.40
2023-03-20T05:09:48.313Z,45.40
2023-03-20T05:12:42.584Z,45.30
2023-03-20T05:15:36.061Z,45.40
2023-03-20T05:18:29.069Z,45.40
2023-03-20T05:21:22.065Z,45.30
2023-03-20T05:24:15.829Z,45.40
2023-03-20T05:27:09.149Z,45.40
2023-03-20T05:30:04.291Z,45.40
2023-03-20T05:32:57.269Z,45.30
2023-03-20T05:35:50.438Z,45.30
2023-03-20T05:38:43.102Z,45.30
2023-03-20T05:41:36.488Z,45.20
2023-03-20T05:44:29.416Z,45.20
2023-03-20T05:47:26.017Z,45.30
2023-03-20T05:50:19.189Z,45.40
2023-03-20T05:53:12.450Z,45.40
2023-03-20T05:56:06.052Z,45.40
2023-03-20T05:58:59.125Z,45.50
2023-03-20T06:01:52.567Z,45.50
2023-03-20T06:04:46.747Z,45.50
2023-03-20T06:07:40.360Z,45.50
2023-03-20T06:10:33.428Z,45.50
2023-03-20T06:13:26.406Z,45.50
2023-03-20T06:16:19.696Z,45.50
2023-03-20T06:19:13.226Z,45.60
2023-03-20T06:22:08.143Z,45.60
2023-03-20T06:25:01.647Z,45.60
2023-03-20T06:27:55.182Z,45.60
2023-03-20T06:30:48.397Z,45.70
2023-03-20T06:33:41.179Z,45.70
2023-03-20T06:36:34.403Z,45.60
2023-03-20T06:39:29.474Z,45.70
2023-03-20T06:42:22.183Z,45.70
2023-03-20T06:45:15.941Z,45.80
2023-03-20T06:48:09.776Z,45.80
2023-03-20T06:51:03.136Z,45.70
2023-03-20T06:53:56.565Z,45.70
2023-03-20T06:56:51.425Z,45.70
2023-03-20T06:59:44.608Z,45.70
2023-03-20T07:02:38.172Z,45.70
2023-03-20T07:05:32.396Z,45.60
2023-03-20T07:08:25.272Z,45.60
2023-03-20T07:11:18.568Z,45.50
2023-03-20T07:14:12.495Z,45.50
2023-03-20T07:17:05.479Z,45.50
2023-03-20T07:19:57.978Z,45.50
2023-03-20T07:22:51.664Z,45.50
2023-03-20T07:25:46.068Z,45.40
2023-03-20T07:28:39.340Z,45.40
2023-03-20T07:31:33.909Z,45.60
2023-03-20T07:34:27.244Z,46.00
2023-03-20T07:37:20.348Z,46.30
2023-03-20T07:40:14.196Z,46.50
2023-03-20T07:43:07.368Z,46.60
2023-03-20T07:46:03.227Z,46.70
2023-03-20T07:48:58.131Z,46.90
2023-03-20T07:51:51.627Z,47.00
2023-03-20T07:54:44.522Z,47.40
2023-03-20T07:57:37.112Z,47.90
2023-03-20T08:00:31.185Z,48.00
2023-03-20T08:03:24.384Z,48.10
2023-03-20T08:06:18.604Z,48.20
2023-03-20T08:09:11.196Z,48.30
2023-03-20T08:12:04.632Z,48.20
2023-03-20T08:14:57.044Z,48.30
2023-03-20T08:17:50.805Z,48.50
2023-03-20T08:20:44.562Z,48.60
2023-03-20T08:23:38.742Z,48.60
2023-03-20T08:26:32.510Z,48.60
2023-03-20T08:29:25.904Z,48.50
2023-03-20T08:32:19.152Z,48.60
2023-03-20T08:35:29.632Z,48.60
2023-03-20T08:38:25.815Z,48.70
2023-03-20T08:41:21.015Z,48.60
2023-03-20T08:44:14.606Z,48.70
2023-03-20T08:47:07.884Z,48.80
2023-03-20T08:50:01.136Z,48.90
2023-03-20T08:52:54.541Z,49.00
2023-03-20T08:55:50.021Z,49.00
2023-03-20T08:58:44.672Z,49.30
2023-03-20T09:01:48.786Z,49.20
2023-03-20T09:04:42.359Z,49.20
2023-03-20T09:07:35.812Z,49.30
2023-03-20T09:10:29.546Z,49.50
2023-03-20T09:13:27.491Z,49.60
2023-03-20T09:16:22.926Z,49.60
2023-03-20T09:19:16.267Z,49.80
2023-03-20T09:22:09.559Z,49.80
2023-03-20T09:25:02.788Z,49.80
2023-03-20T09:27:56.485Z,49.70
2023-03-20T09:30:49.644Z,49.70
2023-03-20T09:33:43.969Z,49.70
2023-03-20T09:36:37.701Z,49.70
2023-03-20T09:39:30.588Z,49.70
2023-03-20T09:42:33.277Z,49.60
2023-03-20T09:45:38.804Z,49.60
2023-03-20T09:48:41.683Z,49.70
2023-03-20T09:51:42.898Z,50.30
2023-03-20T09:54:53.255Z,49.60
2023-03-20T09:57:52.359Z,49.80
2023-03-20T10:00:47.427Z,49.60
2023-03-20T10:03:44.793Z,49.60
2023-03-20T10:06:39.911Z,49.60
2023-03-20T10:09:34.715Z,49.60
2023-03-20T10:12:48.094Z,49.60
2023-03-20T10:15:48.207Z,49.50
2023-03-20T10:18:48.327Z,49.50
2023-03-20T10:21:45.740Z,49.50
2023-03-20T10:24:43.286Z,49.50
2023-03-20T10:27:41.247Z,49.40
2023-03-20T10:30:51.960Z,49.40
2023-03-20T10:33:58.433Z,49.40
2023-03-20T10:37:06.533Z,49.50
2023-03-20T10:40:14.936Z,49.50
2023-03-20T10:43:16.351Z,49.60
2023-03-20T10:46:14.839Z,49.60
2023-03-20T10:49:15.373Z,49.60
2023-03-20T10:52:15.984Z,49.60
2023-03-20T10:55:15.529Z,49.70
2023-03-20T10:58:17.903Z,49.70
2023-03-20T11:01:12.107Z,49.80
2023-03-20T11:04:06.220Z,49.90
2023-03-20T11:07:05.402Z,50.00
2023-03-20T11:10:13.296Z,50.10
2023-03-20T11:13:16.936Z,50.10
2023-03-20T11:16:17.885Z,50.10
2023-03-20T11:19:14.400Z,50.00
2023-03-20T11:22:25.454Z,50.10
2023-03-20T11:25:32.000Z,50.10
2023-03-20T11:28:32.097Z,50.10
2023-03-20T11:31:30.006Z,50.20
2023-03-20T11:34:29.064Z,50.20
2023-03-20T11:37:25.842Z,50.20
2023-03-20T11:40:24.269Z,50.10
2023-03-20T11:43:21.645Z,46.00
2023-03-20T11:46:15.468Z,45.30
2023-03-20T11:49:21.441Z,46.00
2023-03-20T11:52:16.513Z,42.80
2023-03-20T11:55:26.139Z,43.30
2023-03-20T11:58:21.322Z,43.70
2023-03-20T12:01:15.266Z,44.30
2023-03-20T12:04:12.003Z,44.90
2023-03-20T12:07:12.552Z,45.20
2023-03-20T12:10:09.057Z,45.60
2023-03-20T12:13:07.701Z,46.00
2023-03-20T12:16:06.240Z,46.30
2023-03-20T12:19:05.400Z,47.10
2023-03-20T12:22:04.401Z,46.70
2023-03-20T12:25:05.155Z,46.90
2023-03-20T12:28:05.088Z,47.10
2023-03-20T12:31:08.646Z,47.40
2023-03-20T12:34:05.972Z,47.40
2023-03-20T12:37:00.291Z,47.50
2023-03-20T12:39:56.021Z,47.60
2023-03-20T12:43:03.249Z,47.60
2023-03-20T12:46:04.002Z,47.90
2023-03-20T12:49:08.509Z,48.20
2023-03-20T12:52:11.537Z,48.40
2023-03-20T12:55:29.631Z,48.40
2023-03-20T12:58:31.432Z,48.60
2023-03-20T13:01:31.913Z,48.90
2023-03-20T13:04:51.159Z,48.90
2023-03-20T13:08:04.517Z,49.10
2023-03-20T13:11:04.014Z,49.30
2023-03-20T13:14:03.496Z,49.50
2023-03-20T13:17:05.843Z,49.60
2023-03-20T13:20:18.079Z,49.60
2023-03-20T13:23:20.581Z,50.00
2023-03-20T13:26:25.696Z,50.30
2023-03-20T13:29:28.845Z,50.40
2023-03-20T13:32:31.192Z,50.40
2023-03-20T13:35:44.579Z,50.50
2023-03-20T13:38:42.874Z,50.70
2023-03-20T13:41:36.900Z,50.90
2023-03-20T13:44:31.328Z,51.10
2023-03-20T13:47:28.430Z,51.20
2023-03-20T13:50:41.650Z,51.30
2023-03-20T13:53:45.773Z,52.10
2023-03-20T13:56:45.875Z,51.70
2023-03-20T13:59:59.878Z,51.80
2023-03-20T14:03:08.467Z,51.70
2023-03-20T14:06:16.563Z,51.70
2023-03-20T14:09:34.360Z,51.80
2023-03-20T14:12:33.093Z,51.70
2023-03-20T14:15:29.260Z,51.80
2023-03-20T14:18:24.512Z,51.90
2023-03-20T14:21:24.728Z,51.90
2023-03-20T14:24:20.242Z,51.90
2023-03-20T14:27:29.884Z,51.90
2023-03-20T14:30:42.720Z,51.90
2023-03-20T14:33:42.555Z,52.00
2023-03-20T14:36:52.291Z,52.10
2023-03-20T14:39:51.900Z,52.10
2023-03-20T14:42:52.935Z,52.10
2023-03-20T14:45:53.267Z,52.00
2023-03-20T14:48:51.573Z,52.00
2023-03-20T14:51:50.738Z,52.20
2023-03-20T14:54:43.810Z,52.20
2023-03-20T14:57:55.123Z,52.10
2023-03-20T15:00:51.264Z,52.10
2023-03-20T15:03:48.104Z,52.00
2023-03-20T15:06:46.559Z,52.00
2023-03-20T15:09:44.328Z,52.00
2023-03-20T15:12:39.591Z,52.00
2023-03-20T15:15:34.109Z,52.00
2023-03-20T15:18:28.965Z,51.80
2023-03-20T15:21:25.290Z,51.70
2023-03-20T15:24:23.059Z,51.30
2023-03-20T15:27:17.949Z,43.40
2023-03-20T15:30:16.149Z,43.70
2023-03-20T15:33:18.118Z,44.00
2023-03-20T15:36:17.050Z,45.40
2023-03-20T15:39:16.419Z,45.60
2023-03-20T15:42:14.847Z,44.60
2023-03-20T15:45:23.371Z,44.00
2023-03-20T15:48:18.449Z,44.20
2023-03-20T15:51:12.440Z,44.30
2023-03-20T15:54:07.988Z,44.40
2023-03-20T15:57:03.179Z,44.70
2023-03-20T15:59:57.170Z,45.10
2023-03-20T16:02:52.111Z,45.50
2023-03-20T16:05:47.262Z,45.70
2023-03-20T16:08:41.238Z,45.90
2023-03-20T16:11:38.949Z,46.20
2023-03-20T16:14:34.984Z,46.40
2023-03-20T16:17:28.728Z,46.70
2023-03-20T16:20:25.379Z,46.70
2023-03-20T16:23:29.672Z,47.00
2023-03-20T16:26:24.942Z,47.20
2023-03-20T16:29:19.489Z,47.40
2023-03-20T16:32:26.755Z,47.50
2023-03-20T16:35:22.731Z,47.70
2023-03-20T16:38:24.818Z,47.80
2023-03-20T16:41:26.118Z,47.90
2023-03-20T16:44:23.204Z,48.00
2023-03-20T16:47:20.581Z,48.00
2023-03-20T16:50:18.793Z,48.10
2023-03-20T16:53:15.299Z,48.30
2023-03-20T16:56:14.679Z,48.20
2023-03-20T16:59:09.411Z,48.30
2023-03-20T17:02:03.108Z,48.50
2023-03-20T17:04:57.959Z,48.40
2023-03-20T17:07:51.860Z,48.60
2023-03-20T17:10:48.904Z,48.50
2023-03-20T17:13:43.296Z,48.70
2023-03-20T17:16:38.003Z,48.70
2023-03-20T17:19:33.676Z,48.70
2023-03-20T17:22:29.470Z,48.70
2023-03-20T17:25:23.056Z,48.70
2023-03-20T17:28:20.522Z,48.80
2023-03-20T17:31:17.225Z,48.80
2023-03-20T17:34:13.825Z,48.60
2023-03-20T17:37:10.092Z,48.30
2023-03-20T17:40:03.341Z,48.10
2023-03-20T17:42:56.824Z,48.00
2023-03-20T17:45:50.769Z,47.90
2023-03-20T17:48:45.702Z,47.80
2023-03-20T17:51:38.589Z,47.80
2023-03-20T17:54:31.769Z,47.70
2023-03-20T17:57:33.168Z,48.40
2023-03-20T18:00:27.557Z,47.60
2023-03-20T18:03:21.500Z,47.60
2023-03-20T18:06:24.366Z,47.70
2023-03-20T18:09:17.875Z,47.60
2023-03-20T18:12:14.332Z,47.60
2023-03-20T18:15:10.734Z,47.50
2023-03-20T18:18:03.732Z,47.60
2023-03-20T18:20:57.463Z,47.60
2023-03-20T18:23:52.326Z,47.60
2023-03-20T18:26:46.413Z,47.60
2023-03-20T18:29:40.013Z,47.60
2023-03-20T18:32:32.848Z,47.60
2023-03-20T18:35:26.030Z,47.60
2023-03-20T18:38:18.991Z,47.60
2023-03-20T18:41:13.203Z,47.70
2023-03-20T18:44:07.102Z,47.70
2023-03-20T18:47:00.046Z,47.70
2023-03-20T18:49:53.188Z,47.80
2023-03-20T18:52:46.828Z,47.80
2023-03-20T18:55:39.831Z,47.90
2023-03-20T18:58:34.253Z,47.90
2023-03-20T19:01:27.710Z,48.50
2023-03-20T19:04:22.917Z,47.80
2023-03-20T19:07:15.792Z,47.80
2023-03-20T19:10:24.338Z,47.90
2023-03-20T19:13:19.703Z,47.90
2023-03-20T19:16:24.661Z,48.00
2023-03-20T19:19:17.889Z,48.00
2023-03-20T19:22:26.580Z,48.00
2023-03-20T19:25:22.145Z,48.00
2023-03-20T19:28:21.856Z,47.90
2023-03-20T19:31:17.879Z,48.00
2023-03-20T19:34:28.073Z,47.90
2023-03-20T19:37:24.358Z,47.90
2023-03-20T19:40:35.193Z,47.90
2023-03-20T19:43:29.331Z,47.80
2023-03-20T19:46:39.280Z,47.80
2023-03-20T19:49:33.160Z,47.90
2023-03-20T19:52:31.677Z,47.90
2023-03-20T19:55:25.769Z,48.50
2023-03-20T19:58:19.681Z,47.90
2023-03-20T20:01:18.271Z,47.70
2023-03-20T20:04:13.502Z,47.60
2023-03-20T20:07:53.346Z,47.50
2023-03-20T20:10:20.984Z,47.60
2023-03-20T20:13:17.283Z,47.50
2023-03-20T20:16:10.867Z,47.50
2023-03-20T20:19:03.961Z,47.50
2023-03-20T20:22:24.816Z,47.40
2023-03-20T20:25:12.249Z,47.60
2023-03-20T20:28:04.772Z,47.60
2023-03-20T20:30:59.335Z,48.00
2023-03-20T20:34:22.490Z,47.70
2023-03-20T20:40:22.033Z,47.80
2023-03-20T20:43:34.807Z,47.80
2023-03-20T20:46:27.763Z,47.80
2023-03-20T20:49:21.063Z,47.90
2023-03-20T20:52:16.418Z,47.90
2023-03-20T20:55:22.503Z,47.90
2023-03-20T20:58:16.824Z,47.90
2023-03-20T21:01:10.324Z,47.90
2023-03-20T21:04:04.363Z,48.00
2023-03-20T21:07:09.351Z,47.90
2023-03-20T21:10:05.976Z,47.80
2023-03-20T21:13:00.058Z,47.80
2023-03-20T21:15:58.628Z,47.90
2023-03-20T21:18:52.710Z,47.90
2023-03-20T21:21:46.029Z,47.90
2023-03-20T21:24:39.695Z,47.90
2023-03-20T21:27:34.452Z,47.90
2023-03-20T21:30:28.581Z,47.90
2023-03-20T21:33:22.528Z,47.90
2023-03-20T21:36:16.192Z,47.90
2023-03-20T21:39:09.754Z,48.60
2023-03-20T21:42:03.578Z,47.90
2023-03-20T21:45:56.044Z,47.90
2023-03-20T21:48:45.679Z,47.90
2023-03-20T21:58:36.935Z,47.90
2023-03-20T22:17:56.154Z,47.90
2023-03-20T22:21:15.982Z,47.90
2023-03-20T22:24:31.117Z,47.90
2023-03-20T22:27:43.627Z,47.80
2023-03-20T22:31:03.327Z,47.80
2023-03-20T22:40:39.310Z,47.70
2023-03-20T22:44:07.862Z,47.70
2023-03-20T22:46:44.338Z,47.70
2023-03-20T22:49:35.531Z,47.80
2023-03-20T22:52:41.992Z,47.80
2023-03-20T22:55:43.885Z,47.80
2023-03-20T22:58:38.003Z,47.70
2023-03-20T23:01:31.403Z,47.80
2023-03-20T23:04:25.772Z,47.70
2023-03-20T23:07:20.379Z,47.70
2023-03-20T23:10:14.171Z,47.70
2023-03-20T23:13:07.449Z,47.70
2023-03-20T23:16:01.030Z,47.70
2023-03-20T23:18:54.365Z,47.70
2023-03-20T23:21:47.221Z,47.70
2023-03-20T23:24:42.378Z,47.80
2023-03-20T23:27:35.072Z,47.70
2023-03-20T23:30:37.869Z,47.70
2023-03-20T23:33:36.994Z,47.60
2023-03-20T23:36:36.857Z,47.70
2023-03-20T23:39:30.370Z,47.70
2023-03-20T23:42:30.699Z,47.70
2023-03-20T23:45:24.061Z,47.60
2023-03-20T23:48:17.721Z,47.70
2023-03-20T23:51:11.474Z,48.50
2023-03-20T23:54:05.616Z,47.80
2023-03-20T23:56:59.264Z,47.60
2023-03-20T23:59:53.557Z,47.50
